Andersontown, Pennsylvania
Current Conditions -  °F | °C
As of 10:56 AM on Thursday 27 Nov 2014 (Local Time) from KCXY Reporting Station
Overcast Overcast  
Wind Chill: 32°   Ceiling: 3300
Heat Index: 37°   Visibility: 10mi
Dew Point: 28°   Wind: 6mph
Humidity: 70%   Direction: 310°NW
Pressure: 30.05"   Gusts: NA
Location:  40.208°N, 77.0098°W
Report Text: KCXY 271556Z 31005KT 10SM FEW023 BKN033 OVC060 03/M02 A3005 RMK AO2 SLP181 T00281022
Loading
Personal Weather Stations






























Interactive Weather Map New forecast layout! Learn more

10-Day Weather Forecast

Advertisements
Track Severe Weather on mobile